Decoded Metar for KBNL (BROOKHAVEN LAB in SC, USA) (IATA:BNL) | Meteo·Mobile Aviation Weather
aviador You're here:

KBNL Decoded Metar

BROOKHAVEN LAB in SC, USA
Report Time2019-06-18 15:35:00
UTC Time2019-06-18 15:48:05
Flight Rules vfr VFR
Wind110° at 07 kt
W.Decomp.*RWY 17: 4.0 kt HW 5.7 kt LCW
RWY 05: 3.0 kt HW 6.3 kt RCW
Visibility9999 m
Phenomena:N/A
Clouds:Few 028 Hf
Broken 047 Hf
Overcast 055 Hf
Expected CloudBase > 2,000 ft AGL from Temp-Dew spread
Ceiling4,700 ft
Temp27°C (ISA +12)
Dew Point22°C (74% RH)
Heat Index29.2°C
QNH1017 hPa
Density Alt1,900 ft
Elevation246 ft
Report Wrong Elevation
Raw Report
METAR KBNL 181535Z AUTO 11007KT 10SM FEW028 BKN047 OVC055 27/22 A3003
RMK AO2 LTG DSNT SE AND NW=

Extra information for KBNL:More info

Metar Taf Metar & Taf Last 4 Metars F.Rules Stats Wind Profile Meteogram Temp Stats Airport Information Weather charts Add Link Nearby VenuesMetar ALERT Operation Metar Decoded Social comments

AIRNAV info for KBNL